Time;durP1;ratioP1;P1;durP2;ratioP2;P2;SDS_P1;SDS_P2;PMS_P1;PMS_P2;Temp;Humidity;BMP_temperature;BMP_pressure;BME280_temperature;BME280_humidity;BME280_pressure;Samples;Min_cycle;Max_cycle;Signal;HPM_P1;HPM_P2
2021/03/05 00:01:10;;;;;;;19.00;14.13;;;;;;;;;;6157852;23;20173;-89
2021/03/05 00:03:36;;;;;;;21.70;13.53;;;;;;;;;;6135741;23;20207;-90
2021/03/05 00:06:03;;;;;;;19.93;13.73;;;;;;;;;;6161256;23;20173;-90
2021/03/05 00:08:30;;;;;;;17.87;13.07;;;;;;;;;;6135435;23;20161;-89
2021/03/05 00:10:56;;;;;;;25.47;15.60;;;;;;;;;;6161357;23;20161;-92
2021/03/05 00:13:22;;;;;;;20.97;14.77;;;;;;;;;;6161133;23;20179;-90
2021/03/05 00:15:49;;;;;;;17.90;12.60;;;;;;;;;;6161176;23;20209;-91
2021/03/05 00:18:15;;;;;;;18.80;13.70;;;;;;;;;;6160963;23;20173;-89
2021/03/05 00:20:43;;;;;;;16.77;12.47;;;;;;;;;;6135745;23;20162;-91
2021/03/05 00:23:09;;;;;;;17.70;13.10;;;;;;;;;;6135204;23;20189;-90
2021/03/05 00:25:36;;;;;;;18.33;13.60;;;;;;;;;;6160913;23;20180;-88
2021/03/05 00:28:02;;;;;;;16.47;12.50;;;;;;;;;;6135291;23;20220;-89
2021/03/05 00:30:28;;;;;;;16.30;12.63;;;;;;;;;;6160305;23;20181;-91
2021/03/05 00:32:55;;;;;;;18.80;12.57;;;;;;;;;;6134834;23;20551;-92
2021/03/05 00:35:21;;;;;;;15.60;11.83;;;;;;;;;;6159787;23;20708;-92
2021/03/05 00:37:47;;;;;;;15.20;11.90;;;;;;;;;;6160912;23;20177;-89
2021/03/05 00:40:15;;;;;;;15.20;11.97;;;;;;;;;;6134385;23;20247;-90
2021/03/05 00:42:43;;;;;;;14.37;11.60;;;;;;;;;;6160664;23;20573;-89
2021/03/05 00:45:09;;;;;;;14.73;11.70;;;;;;;;;;6160066;23;20547;-90
2021/03/05 00:47:36;;;;;;;13.30;11.50;;;;;;;;;;6160532;23;20197;-90
2021/03/05 00:50:02;;;;;;;17.37;11.93;;;;;;;;;;6160518;23;20154;-91
2021/03/05 00:52:28;;;;;;;13.43;10.77;;;;;;;;;;6134727;23;20547;-89
2021/03/05 00:54:54;;;;;;;15.10;10.67;;;;;;;;;;6159716;23;20658;-89
2021/03/05 00:57:21;;;;;;;12.27;10.43;;;;;;;;;;6160097;23;20244;-91
2021/03/05 00:59:48;;;;;;;14.17;10.97;;;;;;;;;;6160116;23;20180;-92
2021/03/05 01:02:14;;;;;;;12.60;10.50;;;;;;;;;;6160251;23;20177;-92
2021/03/05 01:04:40;;;;;;;14.50;10.47;;;;;;;;;;6134200;23;20185;-87
2021/03/05 01:07:06;;;;;;;12.37;10.53;;;;;;;;;;6160054;23;20586;-91
2021/03/05 01:09:33;;;;;;;13.37;11.10;;;;;;;;;;6159570;23;20180;-89
2021/03/05 01:11:59;;;;;;;13.90;10.43;;;;;;;;;;6159199;23;20181;-88
2021/03/05 01:14:25;;;;;;;11.83;10.03;;;;;;;;;;6159163;23;20173;-88
2021/03/05 01:16:52;;;;;;;12.97;10.40;;;;;;;;;;6133767;23;20173;-88
2021/03/05 01:19:18;;;;;;;12.33;10.00;;;;;;;;;;6160006;23;20184;-90
2021/03/05 01:21:45;;;;;;;10.93;9.40;;;;;;;;;;6160002;23;20157;-89
2021/03/05 01:24:11;;;;;;;10.77;9.60;;;;;;;;;;6159919;23;20193;-88
2021/03/05 01:26:40;;;;;;;11.50;9.67;;;;;;;;;;6133132;23;20447;-89
2021/03/05 01:29:06;;;;;;;10.37;9.27;;;;;;;;;;6133220;23;20173;-88
2021/03/05 01:31:32;;;;;;;11.07;9.67;;;;;;;;;;6159383;23;20554;-90
2021/03/05 01:33:59;;;;;;;11.07;9.90;;;;;;;;;;6159414;23;20157;-88
2021/03/05 01:36:26;;;;;;;11.43;9.73;;;;;;;;;;6159332;23;20435;-89
2021/03/05 01:38:52;;;;;;;10.53;9.43;;;;;;;;;;6159510;23;20161;-89
2021/03/05 01:41:18;;;;;;;9.67;8.47;;;;;;;;;;6159844;23;20463;-89
2021/03/05 01:43:44;;;;;;;10.77;9.67;;;;;;;;;;6159251;23;20212;-89
2021/03/05 01:46:11;;;;;;;10.17;9.10;;;;;;;;;;6159422;23;20173;-89
2021/03/05 01:48:38;;;;;;;10.40;9.40;;;;;;;;;;6158887;23;20201;-90
2021/03/05 01:51:09;;;;;;;10.47;9.17;;;;;;;;;;6134510;23;20209;-89
2021/03/05 01:53:35;;;;;;;10.67;9.53;;;;;;;;;;6136806;23;20432;-89
2021/03/05 01:56:02;;;;;;;10.37;9.37;;;;;;;;;;6162202;23;20546;-88
2021/03/05 01:58:28;;;;;;;10.73;9.30;;;;;;;;;;6137155;23;20181;-90
2021/03/05 02:00:56;;;;;;;9.67;8.67;;;;;;;;;;6162306;23;20228;-89
2021/03/05 02:03:22;;;;;;;10.80;9.73;;;;;;;;;;6139935;23;20201;-89
2021/03/05 02:05:49;;;;;;;9.33;8.43;;;;;;;;;;6159675;23;20173;-88
2021/03/05 02:08:16;;;;;;;9.47;8.57;;;;;;;;;;6159296;23;20181;-89
2021/03/05 02:10:42;;;;;;;9.03;8.13;;;;;;;;;;6159477;23;20154;-91
2021/03/05 02:13:09;;;;;;;9.70;8.70;;;;;;;;;;6133883;23;20554;-90
2021/03/05 02:15:36;;;;;;;9.50;8.27;;;;;;;;;;6159218;23;20173;-90
2021/03/05 02:18:06;;;;;;;9.33;8.40;;;;;;;;;;6133931;23;20543;-91
2021/03/05 02:20:36;;;;;;;8.77;7.87;;;;;;;;;;6158960;23;20177;-89
2021/03/05 02:23:13;;;;;;;9.77;8.43;;;;;;;;;;6158894;23;20156;-90
2021/03/05 02:26:03;;;;;;;9.63;8.23;;;;;;;;;;6159343;23;20153;-92
2021/03/05 02:28:48;;;;;;;8.93;8.03;;;;;;;;;;6158833;23;20215;-89
2021/03/05 02:31:19;;;;;;;9.30;8.30;;;;;;;;;;6158391;23;20220;-89
2021/03/05 02:33:49;;;;;;;8.83;7.93;;;;;;;;;;6158339;23;20170;-89
2021/03/05 02:36:18;;;;;;;8.67;7.77;;;;;;;;;;6158411;23;20177;-89
2021/03/05 02:38:47;;;;;;;8.40;7.50;;;;;;;;;;6158652;23;20551;-89
2021/03/05 02:41:14;;;;;;;10.90;8.47;;;;;;;;;;6133562;23;20165;-89
2021/03/05 02:43:41;;;;;;;9.80;8.47;;;;;;;;;;6158050;23;20190;-88
2021/03/05 02:46:08;;;;;;;9.40;8.50;;;;;;;;;;6158168;23;20177;-89
2021/03/05 02:48:38;;;;;;;9.20;8.30;;;;;;;;;;6157828;23;20200;-89
2021/03/05 02:51:06;;;;;;;9.20;8.27;;;;;;;;;;6158526;23;20173;-89
2021/03/05 02:53:33;;;;;;;10.30;9.20;;;;;;;;;;6158800;23;20153;-89
2021/03/05 02:56:02;;;;;;;9.07;7.90;;;;;;;;;;6159029;23;20165;-89
2021/03/05 02:58:29;;;;;;;10.27;8.77;;;;;;;;;;6132592;23;20205;-88
2021/03/05 03:00:56;;;;;;;10.40;9.17;;;;;;;;;;6158809;23;20239;-89
2021/03/05 03:03:23;;;;;;;10.67;8.80;;;;;;;;;;6158307;23;20177;-88
2021/03/05 03:05:50;;;;;;;10.30;8.53;;;;;;;;;;6158279;23;20177;-89
2021/03/05 03:08:17;;;;;;;9.50;8.50;;;;;;;;;;6158235;23;20421;-88
2021/03/05 03:10:44;;;;;;;11.43;9.03;;;;;;;;;;6132580;23;20617;-89
2021/03/05 03:13:10;;;;;;;9.33;8.43;;;;;;;;;;6132330;23;20504;-89
2021/03/05 03:15:36;;;;;;;9.67;8.67;;;;;;;;;;6131992;23;20447;-88
2021/03/05 03:18:05;;;;;;;10.23;8.33;;;;;;;;;;6158485;23;20154;-87
2021/03/05 03:20:31;;;;;;;10.10;9.10;;;;;;;;;;6131432;23;20173;-88
2021/03/05 03:22:58;;;;;;;10.43;8.80;;;;;;;;;;6157537;23;20475;-88
2021/03/05 03:25:25;;;;;;;10.43;9.30;;;;;;;;;;6157447;23;20192;-88
2021/03/05 03:27:51;;;;;;;9.97;9.00;;;;;;;;;;6158038;23;20184;-87
2021/03/05 03:30:19;;;;;;;12.00;9.20;;;;;;;;;;6157212;23;20181;-88
2021/03/05 03:32:45;;;;;;;10.07;8.63;;;;;;;;;;6157603;23;20180;-87
2021/03/05 03:35:12;;;;;;;10.30;9.20;;;;;;;;;;6158118;23;20169;-88
2021/03/05 03:37:39;;;;;;;10.70;9.40;;;;;;;;;;6159670;23;20177;-87
2021/03/05 03:40:06;;;;;;;12.33;9.77;;;;;;;;;;6159663;23;20185;-88
2021/03/05 03:42:32;;;;;;;12.43;10.23;;;;;;;;;;6134763;23;20165;-88
2021/03/05 03:44:59;;;;;;;12.77;9.60;;;;;;;;;;6134554;23;20181;-88
2021/03/05 03:47:26;;;;;;;11.00;9.80;;;;;;;;;;6129271;23;20205;-88
2021/03/05 03:49:52;;;;;;;10.77;9.17;;;;;;;;;;6130653;23;20178;-87
2021/03/05 03:52:22;;;;;;;12.60;10.50;;;;;;;;;;6130627;23;20178;-87
2021/03/05 03:54:49;;;;;;;12.27;9.80;;;;;;;;;;6130582;23;20161;-88
2021/03/05 03:57:17;;;;;;;10.63;9.53;;;;;;;;;;6130727;23;20253;-88
2021/03/05 03:59:44;;;;;;;11.37;9.90;;;;;;;;;;6130316;23;20598;-88
2021/03/05 04:02:10;;;;;;;12.07;10.27;;;;;;;;;;6130378;23;20438;-87
2021/03/05 04:04:38;;;;;;;11.43;9.97;;;;;;;;;;6130117;23;20209;-88
2021/03/05 04:07:05;;;;;;;11.20;9.73;;;;;;;;;;6130264;23;20154;-87
2021/03/05 04:09:31;;;;;;;11.63;10.43;;;;;;;;;;6128945;23;20178;-87
2021/03/05 04:11:58;;;;;;;12.00;10.53;;;;;;;;;;6130086;23;20178;-87
2021/03/05 04:14:25;;;;;;;13.70;10.20;;;;;;;;;;6129936;23;20158;-88
2021/03/05 04:16:52;;;;;;;14.43;10.10;;;;;;;;;;6129924;23;20166;-87
2021/03/05 04:19:18;;;;;;;15.40;10.23;;;;;;;;;;6130293;23;20182;-88
2021/03/05 04:21:46;;;;;;;13.00;10.30;;;;;;;;;;6129395;23;20174;-88
2021/03/05 04:24:12;;;;;;;12.17;9.97;;;;;;;;;;6129172;23;20178;-88
2021/03/05 04:26:38;;;;;;;12.13;10.77;;;;;;;;;;6127897;23;20248;-88
2021/03/05 04:29:04;;;;;;;12.97;10.80;;;;;;;;;;6128904;23;20492;-88
2021/03/05 04:31:31;;;;;;;13.07;11.10;;;;;;;;;;6130540;23;20558;-87
2021/03/05 04:33:58;;;;;;;13.10;11.23;;;;;;;;;;6130757;23;20154;-89
2021/03/05 04:36:24;;;;;;;13.73;10.43;;;;;;;;;;6128982;23;20173;-89
2021/03/05 04:38:50;;;;;;;14.10;11.23;;;;;;;;;;6131120;23;20174;-89
2021/03/05 04:41:16;;;;;;;15.10;10.50;;;;;;;;;;6129185;23;20162;-89
2021/03/05 04:43:42;;;;;;;13.07;10.67;;;;;;;;;;6130694;23;20174;-88
2021/03/05 04:46:08;;;;;;;12.77;10.90;;;;;;;;;;6129966;23;20178;-87
2021/03/05 04:48:35;;;;;;;14.90;10.80;;;;;;;;;;6157611;23;20210;-87
2021/03/05 04:51:02;;;;;;;13.80;11.47;;;;;;;;;;6132757;23;20470;-85
2021/03/05 04:53:28;;;;;;;14.33;10.80;;;;;;;;;;6159629;23;20265;-88
2021/03/05 04:55:54;;;;;;;13.37;11.07;;;;;;;;;;6159545;23;20173;-88
2021/03/05 04:58:20;;;;;;;14.43;12.00;;;;;;;;;;6159559;23;20173;-87
2021/03/05 05:00:46;;;;;;;17.27;13.03;;;;;;;;;;6133511;23;20165;-87
2021/03/05 05:03:13;;;;;;;17.33;12.70;;;;;;;;;;6133335;23;20404;-88
2021/03/05 05:05:40;;;;;;;17.57;12.43;;;;;;;;;;6158711;23;20193;-86
2021/03/05 05:08:06;;;;;;;16.83;13.63;;;;;;;;;;6133241;23;20174;-86
2021/03/05 05:10:33;;;;;;;19.53;14.63;;;;;;;;;;6132525;23;20177;-86
2021/03/05 05:12:59;;;;;;;16.20;12.80;;;;;;;;;;6131095;23;20184;-87
2021/03/05 05:15:25;;;;;;;17.53;12.97;;;;;;;;;;6132964;23;20177;-87
2021/03/05 05:17:51;;;;;;;16.27;13.07;;;;;;;;;;6158593;23;20173;-88
2021/03/05 05:20:17;;;;;;;16.23;13.27;;;;;;;;;;6159956;23;20178;-87
2021/03/05 05:22:44;;;;;;;15.93;12.47;;;;;;;;;;6162470;23;20153;-88
2021/03/05 05:25:11;;;;;;;20.23;13.73;;;;;;;;;;6161806;23;20215;-87
2021/03/05 05:27:37;;;;;;;18.17;13.70;;;;;;;;;;6135177;23;20239;-87
2021/03/05 05:30:04;;;;;;;18.40;14.53;;;;;;;;;;6160223;23;20181;-83
2021/03/05 05:32:30;;;;;;;19.47;14.20;;;;;;;;;;6159082;23;20193;-82
2021/03/05 05:34:56;;;;;;;18.63;13.70;;;;;;;;;;6158838;23;20180;-84
2021/03/05 05:37:22;;;;;;;15.80;13.30;;;;;;;;;;6160293;23;20174;-86
2021/03/05 05:39:49;;;;;;;23.93;13.30;;;;;;;;;;6160557;23;20181;-86
2021/03/05 05:42:15;;;;;;;16.70;13.43;;;;;;;;;;6159057;23;20443;-84
2021/03/05 05:44:42;;;;;;;18.63;13.43;;;;;;;;;;6161400;23;20173;-88
2021/03/05 05:47:09;;;;;;;19.43;14.03;;;;;;;;;;6160682;23;20207;-88
2021/03/05 05:49:35;;;;;;;21.20;15.23;;;;;;;;;;6161812;23;20177;-87
2021/03/05 05:52:03;;;;;;;20.90;15.77;;;;;;;;;;6135941;23;20228;-90
2021/03/05 05:54:31;;;;;;;20.63;15.33;;;;;;;;;;6134188;23;20173;-87
2021/03/05 05:56:59;;;;;;;19.20;14.57;;;;;;;;;;6159541;23;20161;-89
2021/03/05 05:59:26;;;;;;;23.87;15.50;;;;;;;;;;6158208;23;20176;-87
2021/03/05 06:01:52;;;;;;;19.87;15.70;;;;;;;;;;6158207;23;20173;-87
2021/03/05 06:04:19;;;;;;;19.67;14.87;;;;;;;;;;6158263;23;20189;-87
2021/03/05 06:06:45;;;;;;;20.07;14.83;;;;;;;;;;6132260;23;20174;-85
2021/03/05 06:09:11;;;;;;;21.40;15.50;;;;;;;;;;6158740;23;20157;-87
2021/03/05 06:11:38;;;;;;;16.93;13.90;;;;;;;;;;6158276;23;20609;-87
2021/03/05 06:14:06;;;;;;;20.87;14.57;;;;;;;;;;6164682;23;20180;-87
2021/03/05 06:16:33;;;;;;;19.23;16.08;;;;;;;;;;6157990;23;20728;-87
2021/03/05 06:18:59;;;;;;;18.67;14.70;;;;;;;;;;6158368;23;20196;-87
2021/03/05 06:21:35;;;;;;;19.37;13.43;;;;;;;;;;6158049;23;20184;-85
2021/03/05 06:24:03;;;;;;;16.87;13.37;;;;;;;;;;6158504;23;20227;-86
2021/03/05 06:26:29;;;;;;;16.70;13.03;;;;;;;;;;6158296;23;20184;-87
2021/03/05 06:29:02;;;;;;;17.17;12.50;;;;;;;;;;6132287;23;20436;-85
2021/03/05 06:31:29;;;;;;;14.90;11.93;;;;;;;;;;6131800;23;20418;-85
2021/03/05 06:33:59;;;;;;;17.23;11.97;;;;;;;;;;6158056;23;20220;-86
2021/03/05 06:36:25;;;;;;;16.03;11.87;;;;;;;;;;6132466;23;20169;-86
2021/03/05 06:38:52;;;;;;;13.97;11.07;;;;;;;;;;6158125;23;20174;-86
2021/03/05 06:41:22;;;;;;;12.97;10.70;;;;;;;;;;6157716;23;20177;-86
2021/03/05 06:43:49;;;;;;;12.53;9.90;;;;;;;;;;6158160;23;20180;-86
2021/03/05 06:46:32;;;;;;;12.07;9.90;;;;;;;;;;6157680;23;20562;-85
2021/03/05 06:48:59;;;;;;;10.73;8.97;;;;;;;;;;6099909;23;20659;-85
2021/03/05 06:51:25;;;;;;;8.80;7.90;;;;;;;;;;6098920;23;20179;-85
2021/03/05 06:54:01;;;;;;;11.10;8.20;;;;;;;;;;6099455;23;20229;-84
2021/03/05 06:56:28;;;;;;;10.57;7.50;;;;;;;;;;6099567;23;20150;-85
2021/03/05 06:58:57;;;;;;;8.77;7.37;;;;;;;;;;6097866;23;20477;-84
2021/03/05 07:01:24;;;;;;;7.83;6.63;;;;;;;;;;6098865;23;20178;-85
2021/03/05 07:04:04;;;;;;;7.70;6.87;;;;;;;;;;6099299;23;20186;-85
2021/03/05 07:06:30;;;;;;;10.70;6.00;;;;;;;;;;6098786;23;20556;-85
2021/03/05 07:08:56;;;;;;;7.65;6.82;;;;;;;;;;6097974;23;20733;-85
2021/03/05 07:11:31;;;;;;;9.30;5.80;;;;;;;;;;6097143;23;20179;-85
2021/03/05 07:13:57;;;;;;;10.07;6.27;;;;;;;;;;6098655;23;20449;-85
2021/03/05 07:16:24;;;;;;;7.70;5.93;;;;;;;;;;6098196;23;20175;-85
2021/03/05 07:18:50;;;;;;;8.37;5.60;;;;;;;;;;6098431;23;20179;-85
2021/03/05 07:21:18;;;;;;;6.10;5.50;;;;;;;;;;6098802;23;20186;-84
2021/03/05 07:23:45;;;;;;;7.63;5.70;;;;;;;;;;6098627;23;20217;-85
2021/03/05 07:26:11;;;;;;;5.70;5.20;;;;;;;;;;6097245;23;20199;-84
2021/03/05 07:28:40;;;;;;;6.87;5.50;;;;;;;;;;6099147;23;20182;-85
2021/03/05 07:31:06;;;;;;;7.90;5.73;;;;;;;;;;6098966;23;20181;-85
2021/03/05 07:33:35;;;;;;;6.67;5.47;;;;;;;;;;6099208;23;20171;-85
2021/03/05 07:36:02;;;;;;;6.43;5.47;;;;;;;;;;6098383;23;20178;-84
2021/03/05 07:38:32;;;;;;;6.40;5.73;;;;;;;;;;6098666;23;20544;-85
2021/03/05 07:41:02;;;;;;;7.40;5.77;;;;;;;;;;6097223;23;20175;-84
2021/03/05 07:43:28;;;;;;;7.97;6.17;;;;;;;;;;6098799;23;20445;-85
2021/03/05 07:45:55;;;;;;;6.90;5.77;;;;;;;;;;6098917;23;20195;-85
2021/03/05 07:48:21;;;;;;;10.00;6.13;;;;;;;;;;6122521;23;20558;-85
2021/03/05 07:50:47;;;;;;;6.63;5.93;;;;;;;;;;6127353;23;20200;-85
2021/03/05 07:53:14;;;;;;;7.53;5.80;;;;;;;;;;6127391;23;20185;-85
2021/03/05 07:55:41;;;;;;;8.53;6.17;;;;;;;;;;6128291;23;20181;-84
2021/03/05 07:58:07;;;;;;;6.83;5.50;;;;;;;;;;6127809;23;20181;-85
2021/03/05 08:00:47;;;;;;;7.07;5.20;;;;;;;;;;6126542;23;20175;-85
2021/03/05 08:03:14;;;;;;;10.20;6.00;;;;;;;;;;6127955;23;20552;-85
2021/03/05 08:05:41;;;;;;;7.77;5.90;;;;;;;;;;6128037;23;20190;-85
2021/03/05 08:08:12;;;;;;;12.27;6.30;;;;;;;;;;6125709;23;20611;-85
2021/03/05 08:10:39;;;;;;;8.77;5.57;;;;;;;;;;6127852;23;20174;-83
2021/03/05 08:13:20;;;;;;;8.10;5.90;;;;;;;;;;6128037;23;20181;-83
2021/03/05 08:15:47;;;;;;;8.43;5.67;;;;;;;;;;6125595;23;20185;-84
2021/03/05 08:18:19;;;;;;;9.17;5.73;;;;;;;;;;6128197;23;20174;-86
2021/03/05 08:20:49;;;;;;;8.43;6.27;;;;;;;;;;6128283;23;20556;-84
2021/03/05 08:23:16;;;;;;;6.93;5.93;;;;;;;;;;6128711;23;20174;-83
2021/03/05 08:25:53;;;;;;;11.03;5.70;;;;;;;;;;6129578;23;20483;-80
2021/03/05 08:28:36;;;;;;;10.77;6.67;;;;;;;;;;6128390;23;20173;-83
2021/03/05 08:31:02;;;;;;;8.40;6.07;;;;;;;;;;6129444;23;20560;-83
2021/03/05 08:33:29;;;;;;;8.63;6.50;;;;;;;;;;6129094;23;20240;-83
2021/03/05 08:35:56;;;;;;;9.50;6.20;;;;;;;;;;6129426;23;20171;-86
2021/03/05 08:38:30;;;;;;;9.87;6.50;;;;;;;;;;6130166;23;20189;-87
2021/03/05 08:41:03;;;;;;;9.50;6.10;;;;;;;;;;6129643;23;20161;-85
2021/03/05 08:43:30;;;;;;;11.00;6.77;;;;;;;;;;6129858;23;20174;-83
2021/03/05 08:45:59;;;;;;;9.67;6.60;;;;;;;;;;6127605;23;20273;-84
2021/03/05 08:48:31;;;;;;;11.43;7.10;;;;;;;;;;6155541;23;20205;-87
2021/03/05 08:51:00;;;;;;;8.67;6.13;;;;;;;;;;6158746;23;20201;-86
2021/03/05 08:53:26;;;;;;;8.83;6.73;;;;;;;;;;6159228;23;20177;-88
2021/03/05 08:55:53;;;;;;;11.37;6.83;;;;;;;;;;6132814;23;20173;-86
2021/03/05 08:58:19;;;;;;;11.80;7.07;;;;;;;;;;6158790;23;20173;-86
2021/03/05 09:00:46;;;;;;;12.77;6.70;;;;;;;;;;6158548;23;20181;-86
2021/03/05 09:03:12;;;;;;;9.87;7.27;;;;;;;;;;6132579;23;20428;-86
2021/03/05 09:05:41;;;;;;;9.60;6.93;;;;;;;;;;6158622;23;20185;-86
2021/03/05 09:08:09;;;;;;;11.83;7.10;;;;;;;;;;6132183;23;20173;-87
2021/03/05 09:10:42;;;;;;;14.47;7.93;;;;;;;;;;6158954;23;20150;-87
2021/03/05 09:13:09;;;;;;;10.23;7.33;;;;;;;;;;6158544;23;20243;-86
2021/03/05 09:15:39;;;;;;;12.93;7.27;;;;;;;;;;6158346;23;20170;-84
2021/03/05 09:18:05;;;;;;;11.50;7.97;;;;;;;;;;6158272;23;20471;-86
2021/03/05 09:20:35;;;;;;;17.60;7.47;;;;;;;;;;6132876;23;20196;-84
2021/03/05 09:23:14;;;;;;;12.40;7.40;;;;;;;;;;6158303;23;20173;-86
2021/03/05 09:25:46;;;;;;;15.60;8.20;;;;;;;;;;6132649;23;20263;-88
2021/03/05 09:28:12;;;;;;;11.37;7.67;;;;;;;;;;6158723;23;20180;-87
2021/03/05 09:30:40;;;;;;;11.73;7.57;;;;;;;;;;6132838;23;20161;-86
2021/03/05 09:33:06;;;;;;;16.20;8.57;;;;;;;;;;6157917;23;20239;-87
2021/03/05 09:35:32;;;;;;;9.27;7.47;;;;;;;;;;6158256;23;20173;-89
2021/03/05 09:37:58;;;;;;;20.47;8.10;;;;;;;;;;6158394;23;20181;-88
2021/03/05 09:40:28;;;;;;;11.63;7.83;;;;;;;;;;6158607;23;20173;-87
2021/03/05 09:42:55;;;;;;;11.57;8.10;;;;;;;;;;6159263;23;20558;-85
2021/03/05 09:45:37;;;;;;;11.50;7.80;;;;;;;;;;6132567;23;20200;-84
2021/03/05 09:48:04;;;;;;;12.20;8.43;;;;;;;;;;6127309;23;20205;-86
2021/03/05 09:50:31;;;;;;;16.47;8.17;;;;;;;;;;6129078;23;20178;-85
2021/03/05 09:52:57;;;;;;;11.10;8.47;;;;;;;;;;6129277;23;20174;-85
2021/03/05 09:55:32;;;;;;;12.80;8.10;;;;;;;;;;6129074;23;20181;-86
2021/03/05 09:58:09;;;;;;;11.53;7.80;;;;;;;;;;6128983;23;20173;-86
2021/03/05 10:00:36;;;;;;;12.27;7.97;;;;;;;;;;6128640;23;20173;-86
2021/03/05 10:03:03;;;;;;;14.57;8.43;;;;;;;;;;6129208;23;20237;-86
2021/03/05 10:05:29;;;;;;;12.03;7.80;;;;;;;;;;6128995;23;20202;-85
2021/03/05 10:07:56;;;;;;;8.87;7.60;;;;;;;;;;6129086;23;20174;-86
2021/03/05 10:10:22;;;;;;;13.10;8.13;;;;;;;;;;6129149;23;20174;-86
2021/03/05 10:12:51;;;;;;;11.47;8.10;;;;;;;;;;6127387;23;20174;-86
2021/03/05 10:15:18;;;;;;;12.93;7.60;;;;;;;;;;6127739;23;20170;-87
2021/03/05 10:17:44;;;;;;;14.00;8.17;;;;;;;;;;6129143;23;20162;-88
2021/03/05 10:20:10;;;;;;;10.57;7.33;;;;;;;;;;6128833;23;20158;-87
2021/03/05 10:22:36;;;;;;;9.53;7.60;;;;;;;;;;6127227;23;20162;-84
2021/03/05 10:25:03;;;;;;;9.20;7.10;;;;;;;;;;6128676;23;20190;-82
2021/03/05 10:27:39;;;;;;;8.60;7.30;;;;;;;;;;6128400;23;20174;-87
2021/03/05 10:30:07;;;;;;;9.63;7.40;;;;;;;;;;6128951;23;20178;-87
2021/03/05 10:32:37;;;;;;;10.00;7.77;;;;;;;;;;6128280;23;20436;-86
2021/03/05 10:35:04;;;;;;;10.73;7.43;;;;;;;;;;6128740;23;20801;-86
2021/03/05 10:37:31;;;;;;;8.30;7.40;;;;;;;;;;6128886;23;20158;-87
2021/03/05 10:39:57;;;;;;;9.93;7.23;;;;;;;;;;6129297;23;20185;-88
2021/03/05 10:42:24;;;;;;;9.10;6.73;;;;;;;;;;6127402;23;20174;-89
2021/03/05 10:44:51;;;;;;;7.97;7.13;;;;;;;;;;6128351;23;20166;-87
2021/03/05 10:47:19;;;;;;;11.40;7.67;;;;;;;;;;6127061;23;20206;-88
2021/03/05 10:49:46;;;;;;;8.60;7.50;;;;;;;;;;6129390;23;20480;-88
2021/03/05 10:52:12;;;;;;;9.50;6.97;;;;;;;;;;6128892;23;20484;-87
2021/03/05 10:54:39;;;;;;;8.20;7.37;;;;;;;;;;6127868;23;20547;-90
2021/03/05 10:57:07;;;;;;;9.67;7.80;;;;;;;;;;6127816;23;20170;-85
2021/03/05 10:59:33;;;;;;;9.30;7.90;;;;;;;;;;6126770;23;20181;-85
2021/03/05 11:01:59;;;;;;;8.47;7.57;;;;;;;;;;6128002;23;20174;-85
2021/03/05 11:04:26;;;;;;;8.97;7.97;;;;;;;;;;6128507;23;20590;-83
2021/03/05 11:06:53;;;;;;;9.70;7.70;;;;;;;;;;6126464;23;20186;-80
2021/03/05 11:09:19;;;;;;;10.83;8.40;;;;;;;;;;6128090;23;20185;-83
2021/03/05 11:11:46;;;;;;;8.00;7.20;;;;;;;;;;6127513;23;20185;-85
2021/03/05 11:14:12;;;;;;;11.40;9.33;;;;;;;;;;6127986;23;20174;-87
2021/03/05 11:16:38;;;;;;;9.00;8.00;;;;;;;;;;6127518;23;20174;-84
2021/03/05 11:19:05;;;;;;;9.50;8.37;;;;;;;;;;6140184;23;20583;-84
2021/03/05 11:21:32;;;;;;;9.77;7.83;;;;;;;;;;6125978;23;20178;-85
2021/03/05 11:23:58;;;;;;;12.27;7.43;;;;;;;;;;6128717;23;20178;-85
2021/03/05 11:26:25;;;;;;;8.67;7.50;;;;;;;;;;6127952;23;20190;-87
2021/03/05 11:28:51;;;;;;;12.03;8.27;;;;;;;;;;6127898;23;20177;-84
2021/03/05 11:31:18;;;;;;;10.50;8.30;;;;;;;;;;6128024;23;20454;-86
2021/03/05 11:33:44;;;;;;;10.03;7.57;;;;;;;;;;6128667;23;20181;-86
2021/03/05 11:36:11;;;;;;;11.50;8.50;;;;;;;;;;6126752;23;20221;-87
2021/03/05 11:38:38;;;;;;;11.33;8.77;;;;;;;;;;6128428;23;20174;-87
2021/03/05 11:41:04;;;;;;;9.00;8.00;;;;;;;;;;6127638;23;20181;-86
2021/03/05 11:43:30;;;;;;;10.40;8.03;;;;;;;;;;6128568;23;20178;-87
2021/03/05 11:45:56;;;;;;;8.50;7.63;;;;;;;;;;6126762;23;20244;-85
2021/03/05 11:48:23;;;;;;;10.60;8.23;;;;;;;;;;6153070;23;20208;-89
2021/03/05 11:50:49;;;;;;;8.07;7.27;;;;;;;;;;6130877;23;20181;-84
2021/03/05 11:53:15;;;;;;;11.87;7.77;;;;;;;;;;6131937;23;20173;-83
2021/03/05 11:55:42;;;;;;;8.53;7.63;;;;;;;;;;6156608;23;20460;-86
2021/03/05 11:58:08;;;;;;;9.00;6.90;;;;;;;;;;6131660;23;20184;-84
2021/03/05 12:00:35;;;;;;;8.40;6.77;;;;;;;;;;6158352;23;20184;-87
2021/03/05 12:03:01;;;;;;;9.00;7.47;;;;;;;;;;6158936;23;20177;-90
2021/03/05 12:05:27;;;;;;;7.70;7.00;;;;;;;;;;6158447;23;20563;-86
2021/03/05 12:07:53;;;;;;;8.07;6.43;;;;;;;;;;6158487;23;20174;-85
2021/03/05 12:10:19;;;;;;;6.67;6.07;;;;;;;;;;6158254;23;20181;-85
2021/03/05 12:12:46;;;;;;;6.83;6.10;;;;;;;;;;6158015;23;20180;-85
2021/03/05 12:15:13;;;;;;;6.77;6.10;;;;;;;;;;6158268;23;20177;-85
2021/03/05 12:17:39;;;;;;;7.00;6.30;;;;;;;;;;6132310;23;20404;-87
2021/03/05 12:20:06;;;;;;;6.90;6.20;;;;;;;;;;6132876;23;20165;-87
2021/03/05 12:22:32;;;;;;;7.50;6.57;;;;;;;;;;6157815;23;20180;-87
2021/03/05 12:24:58;;;;;;;6.43;5.83;;;;;;;;;;6158262;23;20211;-85
2021/03/05 12:27:24;;;;;;;6.30;5.70;;;;;;;;;;6157742;23;20193;-84
2021/03/05 12:29:51;;;;;;;5.67;5.17;;;;;;;;;;6157976;23;20181;-85
2021/03/05 12:32:18;;;;;;;6.03;5.53;;;;;;;;;;6157710;23;20173;-88
2021/03/05 12:34:44;;;;;;;5.90;5.30;;;;;;;;;;6158541;23;20185;-79
2021/03/05 12:37:10;;;;;;;5.57;4.90;;;;;;;;;;6132155;23;20694;-81
2021/03/05 12:39:36;;;;;;;6.43;5.20;;;;;;;;;;6158537;23;20173;-87
2021/03/05 12:42:02;;;;;;;5.30;4.80;;;;;;;;;;6158263;23;20184;-85
2021/03/05 12:44:28;;;;;;;6.90;4.87;;;;;;;;;;6158154;23;20180;-85
2021/03/05 12:46:55;;;;;;;5.70;4.73;;;;;;;;;;6126966;23;20633;-88
2021/03/05 12:49:21;;;;;;;5.60;5.10;;;;;;;;;;6129448;23;20178;-84
2021/03/05 12:51:47;;;;;;;9.30;4.63;;;;;;;;;;6129124;23;20185;-88
2021/03/05 12:54:14;;;;;;;5.70;5.20;;;;;;;;;;6129636;23;20444;-81
2021/03/05 12:56:40;;;;;;;6.13;5.53;;;;;;;;;;6128578;23;20170;-81
2021/03/05 12:59:06;;;;;;;6.40;5.67;;;;;;;;;;6129057;23;20181;-82
2021/03/05 13:01:32;;;;;;;6.67;5.20;;;;;;;;;;6127822;23;20559;-81
2021/03/05 13:03:59;;;;;;;6.10;5.50;;;;;;;;;;6128803;23;20181;-82
2021/03/05 13:06:25;;;;;;;6.03;5.43;;;;;;;;;;6127968;23;20190;-84
2021/03/05 13:08:51;;;;;;;6.63;5.93;;;;;;;;;;6128692;23;20193;-81
2021/03/05 13:11:17;;;;;;;5.60;5.07;;;;;;;;;;6127975;23;20573;-87
2021/03/05 13:13:43;;;;;;;5.83;5.33;;;;;;;;;;6128454;23;20174;-86
2021/03/05 13:16:10;;;;;;;5.20;4.80;;;;;;;;;;6128377;23;20181;-83
2021/03/05 13:18:36;;;;;;;5.33;4.87;;;;;;;;;;6129060;23;20185;-87
2021/03/05 13:21:03;;;;;;;6.10;5.50;;;;;;;;;;6128429;23;20163;-82
2021/03/05 13:23:29;;;;;;;7.07;5.80;;;;;;;;;;6128654;23;20178;-82
2021/03/05 13:26:00;;;;;;;5.60;5.10;;;;;;;;;;6128536;23;20205;-85
2021/03/05 13:28:26;;;;;;;6.43;5.23;;;;;;;;;;6128846;23;20272;-83
2021/03/05 13:30:52;;;;;;;5.63;5.13;;;;;;;;;;6127496;23;20184;-83
2021/03/05 13:33:18;;;;;;;5.77;5.27;;;;;;;;;;6128659;23;20229;-87
2021/03/05 13:35:44;;;;;;;5.80;5.20;;;;;;;;;;6128225;23;20803;-87
2021/03/05 13:38:11;;;;;;;6.50;5.20;;;;;;;;;;6128811;23;20158;-85
2021/03/05 13:40:37;;;;;;;5.57;5.07;;;;;;;;;;6128585;23;20180;-83
2021/03/05 13:43:03;;;;;;;6.50;5.00;;;;;;;;;;6128631;23;20174;-82
2021/03/05 13:45:32;;;;;;;6.27;5.63;;;;;;;;;;6128316;23;20178;-88
2021/03/05 13:47:58;;;;;;;6.32;5.72;;;;;;;;;;6146791;23;20729;-85
2021/03/05 13:50:24;;;;;;;6.20;5.70;;;;;;;;;;6157788;23;20491;-82
2021/03/05 13:52:50;;;;;;;5.80;5.27;;;;;;;;;;6157965;23;20180;-83
2021/03/05 13:55:17;;;;;;;6.70;5.80;;;;;;;;;;6158483;23;20180;-85
2021/03/05 13:57:43;;;;;;;9.30;5.43;;;;;;;;;;6157587;23;20594;-82
2021/03/05 14:00:10;;;;;;;5.20;4.80;;;;;;;;;;6131812;23;20180;-84
2021/03/05 14:02:36;;;;;;;5.20;4.70;;;;;;;;;;6157414;23;20173;-83
2021/03/05 14:05:03;;;;;;;5.93;5.10;;;;;;;;;;6132189;23;20180;-84
2021/03/05 14:07:29;;;;;;;5.47;4.83;;;;;;;;;;6156932;23;20200;-84
2021/03/05 14:09:55;;;;;;;5.80;5.20;;;;;;;;;;6157913;23;20565;-82
2021/03/05 14:12:22;;;;;;;6.17;5.40;;;;;;;;;;6157561;23;20350;-86
2021/03/05 14:14:48;;;;;;;5.70;5.20;;;;;;;;;;6157704;23;20479;-84
2021/03/05 14:17:14;;;;;;;5.27;4.77;;;;;;;;;;6157737;23;20412;-83
2021/03/05 14:19:40;;;;;;;7.10;5.20;;;;;;;;;;6157391;23;20579;-83
2021/03/05 14:22:07;;;;;;;6.00;5.40;;;;;;;;;;6156628;23;20173;-83
2021/03/05 14:24:33;;;;;;;6.13;5.23;;;;;;;;;;6157604;23;20200;-83
2021/03/05 14:26:59;;;;;;;6.77;5.53;;;;;;;;;;6157372;23;20400;-86
2021/03/05 14:29:26;;;;;;;6.10;5.50;;;;;;;;;;6157137;23;20178;-83
2021/03/05 14:31:52;;;;;;;6.13;5.53;;;;;;;;;;6156243;23;20186;-83